createdAt,value
2017-06-08T00:00:24.970Z,57.60
2017-06-08T00:02:52.736Z,57.70
2017-06-08T00:05:20.425Z,57.70
2017-06-08T00:07:48.285Z,57.60
2017-06-08T00:10:16.147Z,57.60
2017-06-08T00:12:44.117Z,57.60
2017-06-08T00:15:11.754Z,57.70
2017-06-08T00:17:39.443Z,57.60
2017-06-08T00:20:07.208Z,57.70
2017-06-08T00:22:34.950Z,57.70
2017-06-08T00:25:04.762Z,57.80
2017-06-08T00:27:32.538Z,57.70
2017-06-08T00:30:00.315Z,57.70
2017-06-08T00:32:28.057Z,57.70
2017-06-08T00:34:55.748Z,57.70
2017-06-08T00:37:24.526Z,57.80
2017-06-08T00:39:52.271Z,57.70
2017-06-08T00:42:21.132Z,57.70
2017-06-08T00:44:48.924Z,57.70
2017-06-08T00:47:16.688Z,57.70
2017-06-08T00:49:44.764Z,57.70
2017-06-08T00:52:12.419Z,57.70
2017-06-08T00:54:40.042Z,57.60
2017-06-08T00:57:07.848Z,58.20
2017-06-08T00:59:35.613Z,57.70
2017-06-08T01:02:03.697Z,57.70
2017-06-08T01:04:31.446Z,57.60
2017-06-08T01:06:59.208Z,57.70
2017-06-08T01:09:27.004Z,57.70
2017-06-08T01:11:54.654Z,57.60
2017-06-08T01:14:22.810Z,57.60
2017-06-08T01:16:50.444Z,57.60
2017-06-08T01:19:18.241Z,57.70
2017-06-08T01:21:46.001Z,57.70
2017-06-08T01:24:13.684Z,57.70
2017-06-08T01:26:41.624Z,57.80
2017-06-08T01:29:09.319Z,58.30
2017-06-08T01:31:36.980Z,57.80
2017-06-08T01:34:04.636Z,57.80
2017-06-08T01:36:32.300Z,57.70
2017-06-08T01:39:00.352Z,57.80
2017-06-08T01:41:28.025Z,57.70
2017-06-08T01:43:55.776Z,57.80
2017-06-08T01:46:23.540Z,57.80
2017-06-08T01:48:51.202Z,57.70
2017-06-08T01:51:19.273Z,57.60
2017-06-08T01:53:47.037Z,57.80
2017-06-08T01:56:14.800Z,57.60
2017-06-08T01:58:42.488Z,57.70
2017-06-08T02:01:10.430Z,57.70
2017-06-08T02:03:38.390Z,57.60
2017-06-08T02:06:06.066Z,57.60
2017-06-08T02:08:33.698Z,57.60
2017-06-08T02:11:01.407Z,57.70
2017-06-08T02:13:29.066Z,57.60
2017-06-08T02:15:57.106Z,57.60
2017-06-08T02:18:24.799Z,57.60
2017-06-08T02:20:52.462Z,57.50
2017-06-08T02:23:20.132Z,57.40
2017-06-08T02:25:47.867Z,57.50
2017-06-08T02:28:15.941Z,57.50
2017-06-08T02:30:43.618Z,57.50
2017-06-08T02:33:11.367Z,57.50
2017-06-08T02:35:39.131Z,57.50
2017-06-08T02:38:06.815Z,57.40
2017-06-08T02:40:34.864Z,57.40
2017-06-08T02:43:02.550Z,57.40
2017-06-08T02:45:30.392Z,57.50
2017-06-08T02:47:58.070Z,57.50
2017-06-08T02:50:25.733Z,57.50
2017-06-08T02:52:53.708Z,57.50
2017-06-08T02:55:21.448Z,57.50
2017-06-08T02:57:49.213Z,57.50
2017-06-08T03:00:16.889Z,57.60
2017-06-08T03:02:44.585Z,57.60
2017-06-08T03:05:13.310Z,57.60
2017-06-08T03:07:40.962Z,57.60
2017-06-08T03:10:08.769Z,57.70
2017-06-08T03:12:37.332Z,57.60
2017-06-08T03:15:04.976Z,57.50
2017-06-08T03:17:33.171Z,57.60
2017-06-08T03:20:00.806Z,57.60
2017-06-08T03:22:28.592Z,57.50
2017-06-08T03:24:56.360Z,57.50
2017-06-08T03:27:24.038Z,57.60
2017-06-08T03:29:52.196Z,57.60
2017-06-08T03:32:19.830Z,57.50
2017-06-08T03:34:47.621Z,57.60
2017-06-08T03:37:15.308Z,57.60
2017-06-08T03:39:43.049Z,57.50
2017-06-08T03:42:11.116Z,57.60
2017-06-08T03:44:38.761Z,57.50
2017-06-08T03:47:06.542Z,57.50
2017-06-08T03:49:34.227Z,57.50
2017-06-08T03:52:01.968Z,57.60
2017-06-08T03:54:30.044Z,57.50
2017-06-08T03:56:57.673Z,57.50
2017-06-08T03:59:25.363Z,57.40
2017-06-08T04:01:53.031Z,57.50
2017-06-08T04:04:20.712Z,57.50
2017-06-08T04:06:48.679Z,57.60
2017-06-08T04:09:16.423Z,57.50
2017-06-08T04:11:44.187Z,57.50
2017-06-08T04:14:11.879Z,57.50
2017-06-08T04:16:39.636Z,57.40
2017-06-08T04:19:07.680Z,57.60
2017-06-08T04:21:35.448Z,57.50
2017-06-08T04:24:03.211Z,57.50
2017-06-08T04:26:30.890Z,57.60
2017-06-08T04:28:58.550Z,57.70
2017-06-08T04:31:26.607Z,57.70
2017-06-08T04:33:54.295Z,57.70
2017-06-08T04:36:21.947Z,57.80
2017-06-08T04:38:49.797Z,57.80
2017-06-08T04:41:17.476Z,57.90
2017-06-08T04:43:45.453Z,57.90
2017-06-08T04:46:13.084Z,58.00
2017-06-08T04:48:40.726Z,58.00
2017-06-08T04:51:08.513Z,58.00
2017-06-08T04:53:36.280Z,58.10
2017-06-08T04:56:04.240Z,58.20
2017-06-08T04:58:31.926Z,58.70
2017-06-08T05:00:59.588Z,58.20
2017-06-08T05:03:27.439Z,58.10
2017-06-08T05:05:55.203Z,58.10
2017-06-08T05:08:23.273Z,58.00
2017-06-08T05:10:51.036Z,58.10
2017-06-08T05:13:18.663Z,58.10
2017-06-08T05:15:46.388Z,58.00
2017-06-08T05:18:14.125Z,57.90
2017-06-08T05:20:42.078Z,57.90
2017-06-08T05:23:09.887Z,57.90
2017-06-08T05:25:37.752Z,57.70
2017-06-08T05:28:05.592Z,57.70
2017-06-08T05:30:33.222Z,57.70
2017-06-08T05:33:01.331Z,57.60
2017-06-08T05:35:29.088Z,57.50
2017-06-08T05:37:56.752Z,57.50
2017-06-08T05:40:24.435Z,57.50
2017-06-08T05:42:52.283Z,57.40
2017-06-08T05:45:20.453Z,57.90
2017-06-08T05:47:48.319Z,57.30
2017-06-08T05:50:16.084Z,57.10
2017-06-08T05:52:43.872Z,57.10
2017-06-08T05:55:11.526Z,57.10
2017-06-08T05:57:39.577Z,56.90
2017-06-08T06:00:07.345Z,57.00
2017-06-08T06:02:35.132Z,56.80
2017-06-08T06:05:02.898Z,56.80
2017-06-08T06:07:30.560Z,56.80
2017-06-08T06:09:58.712Z,56.70
2017-06-08T06:12:26.393Z,56.70
2017-06-08T06:14:54.027Z,56.60
2017-06-08T06:17:21.798Z,56.60
2017-06-08T06:19:49.476Z,56.60
2017-06-08T06:22:17.457Z,56.50
2017-06-08T06:24:45.106Z,56.40
2017-06-08T06:27:12.853Z,56.20
2017-06-08T06:29:40.654Z,56.20
2017-06-08T06:32:09.201Z,56.20
2017-06-08T06:34:37.275Z,56.10
2017-06-08T06:37:05.137Z,56.00
2017-06-08T06:39:32.800Z,55.90
2017-06-08T06:42:00.562Z,56.10
2017-06-08T06:44:28.346Z,55.90
2017-06-08T06:46:56.501Z,55.90
2017-06-08T06:49:24.266Z,55.80
2017-06-08T06:51:51.946Z,55.80
2017-06-08T06:54:19.796Z,55.60
2017-06-08T06:56:47.559Z,55.40
2017-06-08T06:59:15.629Z,55.50
2017-06-08T07:01:43.319Z,55.50
2017-06-08T07:04:10.977Z,55.50
2017-06-08T07:06:38.721Z,55.40
2017-06-08T07:09:06.483Z,55.30
2017-06-08T07:11:34.472Z,55.40
2017-06-08T07:14:02.109Z,55.50
2017-06-08T07:16:29.810Z,55.40
2017-06-08T07:18:58.234Z,55.30
2017-06-08T07:21:25.960Z,55.20
2017-06-08T07:23:53.909Z,55.30
2017-06-08T07:26:21.547Z,55.30
2017-06-08T07:28:49.240Z,55.00
2017-06-08T07:31:17.796Z,55.10
2017-06-08T07:33:45.469Z,55.60
2017-06-08T07:36:13.548Z,55.00
2017-06-08T07:38:41.211Z,54.80
2017-06-08T07:41:08.839Z,54.90
2017-06-08T07:43:36.540Z,54.90
2017-06-08T07:46:04.170Z,54.70
2017-06-08T07:48:31.887Z,54.70
2017-06-08T07:51:00.328Z,54.70
2017-06-08T07:53:27.955Z,54.60
2017-06-08T07:55:55.632Z,54.50
2017-06-08T07:58:23.264Z,54.40
2017-06-08T08:01:02.800Z,54.30
2017-06-08T08:03:30.444Z,54.30
2017-06-08T08:05:58.863Z,54.40
2017-06-08T08:08:26.822Z,54.30
2017-06-08T08:10:54.450Z,54.40
2017-06-08T08:13:22.845Z,54.60
2017-06-08T08:15:50.854Z,54.40
2017-06-08T08:18:18.521Z,54.30
2017-06-08T08:20:46.150Z,54.20
2017-06-08T08:23:14.093Z,54.40
2017-06-08T08:25:42.508Z,54.30
2017-06-08T08:28:10.152Z,54.20
2017-06-08T08:30:37.836Z,54.10
2017-06-08T08:33:05.545Z,54.10
2017-06-08T08:35:33.574Z,54.10
2017-06-08T08:38:01.241Z,54.10
2017-06-08T08:40:28.869Z,54.00
2017-06-08T08:42:56.550Z,54.10
2017-06-08T08:45:24.204Z,54.10
2017-06-08T08:47:52.214Z,54.00
2017-06-08T08:50:19.869Z,54.00
2017-06-08T08:52:47.657Z,54.10
2017-06-08T08:55:15.367Z,54.10
2017-06-08T08:57:43.008Z,53.80
2017-06-08T09:00:10.944Z,53.80
2017-06-08T09:02:38.588Z,53.70
2017-06-08T09:05:06.249Z,53.60
2017-06-08T09:07:33.915Z,53.40
2017-06-08T09:10:01.568Z,53.40
2017-06-08T09:12:29.535Z,53.30
2017-06-08T09:14:57.183Z,53.40
2017-06-08T09:17:24.821Z,53.30
2017-06-08T09:19:52.835Z,53.20
2017-06-08T09:22:20.494Z,53.20
2017-06-08T09:24:48.216Z,53.20
2017-06-08T09:27:16.248Z,53.00
2017-06-08T09:29:43.879Z,53.10
2017-06-08T09:32:11.507Z,53.40
2017-06-08T09:34:39.503Z,53.10
2017-06-08T09:37:07.135Z,53.40
2017-06-08T09:39:34.841Z,53.70
2017-06-08T09:42:02.790Z,53.60
2017-06-08T09:44:30.434Z,53.80
2017-06-08T09:46:58.071Z,53.80
2017-06-08T09:49:26.802Z,54.00
2017-06-08T09:51:54.438Z,54.00
2017-06-08T09:54:22.074Z,54.00
2017-06-08T09:56:50.009Z,53.80
2017-06-08T09:59:17.773Z,53.80
2017-06-08T10:01:45.539Z,53.80
2017-06-08T10:04:13.610Z,53.80
2017-06-08T10:06:41.375Z,53.80
2017-06-08T10:09:09.002Z,53.50
2017-06-08T10:11:37.026Z,53.20
2017-06-08T10:14:04.664Z,53.10
2017-06-08T10:16:32.345Z,53.00
2017-06-08T10:19:00.293Z,52.90
2017-06-08T10:21:28.061Z,52.80
2017-06-08T10:23:55.700Z,52.80
2017-06-08T10:26:23.674Z,52.90
2017-06-08T10:28:51.380Z,52.70
2017-06-08T10:31:19.005Z,52.70
2017-06-08T10:33:47.188Z,52.80
2017-06-08T10:36:14.952Z,53.00
2017-06-08T10:38:42.615Z,53.20
2017-06-08T10:41:10.581Z,53.40
2017-06-08T10:43:38.249Z,53.80
2017-06-08T10:46:05.929Z,54.30
2017-06-08T10:48:33.971Z,54.40
2017-06-08T10:51:01.746Z,54.40
2017-06-08T10:53:30.549Z,54.60
2017-06-08T10:55:58.726Z,54.60
2017-06-08T10:58:26.586Z,54.50
2017-06-08T11:00:54.450Z,54.60
2017-06-08T11:03:22.735Z,54.40
2017-06-08T11:05:50.480Z,54.10
2017-06-08T11:08:18.348Z,54.20
2017-06-08T11:10:46.337Z,54.10
2017-06-08T11:13:14.816Z,54.10
2017-06-08T11:15:42.458Z,54.00
2017-06-08T11:18:10.425Z,54.30
2017-06-08T11:20:38.191Z,54.50
2017-06-08T11:23:06.646Z,54.40
2017-06-08T11:25:34.970Z,54.40
2017-06-08T11:28:02.932Z,54.50
2017-06-08T11:30:31.316Z,54.40
2017-06-08T11:32:59.586Z,54.40
2017-06-08T11:35:27.453Z,55.00
2017-06-08T11:37:55.325Z,54.50
2017-06-08T11:40:23.496Z,55.30
2017-06-08T11:42:51.543Z,55.30
2017-06-08T11:45:19.440Z,55.90
2017-06-08T11:47:47.610Z,55.80
2017-06-08T11:50:15.476Z,55.70
2017-06-08T11:52:43.339Z,55.60
2017-06-08T11:55:11.411Z,55.40
2017-06-08T11:57:39.281Z,55.30
2017-06-08T12:00:07.549Z,55.40
2017-06-08T12:02:35.709Z,55.40
2017-06-08T12:05:03.476Z,55.80
2017-06-08T12:07:31.131Z,56.30
2017-06-08T12:09:59.125Z,56.40
2017-06-08T12:12:26.757Z,56.80
2017-06-08T12:14:54.536Z,57.20
2017-06-08T12:17:22.495Z,56.40
2017-06-08T12:19:51.096Z,56.10
2017-06-08T12:22:19.583Z,56.10
2017-06-08T12:24:47.524Z,56.10
2017-06-08T12:27:15.193Z,56.10
2017-06-08T12:29:42.960Z,56.60
2017-06-08T12:32:10.882Z,57.30
2017-06-08T12:34:38.514Z,57.40
2017-06-08T12:37:06.466Z,58.00
2017-06-08T12:39:34.528Z,58.10
2017-06-08T12:42:02.294Z,58.00
2017-06-08T12:44:29.942Z,58.40
2017-06-08T12:46:58.229Z,58.60
2017-06-08T12:49:25.931Z,58.30
2017-06-08T12:51:54.479Z,57.90
2017-06-08T12:54:22.467Z,57.90
2017-06-08T12:56:50.208Z,57.80
2017-06-08T12:59:17.845Z,57.80
2017-06-08T13:01:45.817Z,57.90
2017-06-08T13:04:13.603Z,57.70
2017-06-08T13:06:41.230Z,57.60
2017-06-08T13:09:09.218Z,57.60
2017-06-08T13:11:36.856Z,57.90
2017-06-08T13:14:04.617Z,58.10
2017-06-08T13:16:32.626Z,58.40
2017-06-08T13:19:00.496Z,58.10
2017-06-08T13:21:28.143Z,58.20
2017-06-08T13:23:56.113Z,57.90
2017-06-08T13:26:23.802Z,58.30
2017-06-08T13:28:51.466Z,58.80
2017-06-08T13:31:19.521Z,58.70
2017-06-08T13:33:47.230Z,58.60
2017-06-08T13:36:15.665Z,58.40
2017-06-08T13:38:43.740Z,58.30
2017-06-08T13:41:11.370Z,58.40
2017-06-08T13:43:39.015Z,58.40
2017-06-08T13:46:07.130Z,58.50
2017-06-08T13:48:35.022Z,58.20
2017-06-08T13:51:02.668Z,57.70
2017-06-08T13:53:30.614Z,57.60
2017-06-08T13:55:58.321Z,57.70
2017-06-08T13:58:26.053Z,57.40
2017-06-08T14:00:54.124Z,57.60
2017-06-08T14:03:21.888Z,57.80
2017-06-08T14:05:49.565Z,57.30
2017-06-08T14:08:17.622Z,57.50
2017-06-08T14:10:45.302Z,57.70
2017-06-08T14:13:13.050Z,56.90
2017-06-08T14:15:41.019Z,56.90
2017-06-08T14:18:08.884Z,56.60
2017-06-08T14:20:36.528Z,56.40
2017-06-08T14:23:04.950Z,56.20
2017-06-08T14:25:32.607Z,56.00
2017-06-08T14:28:00.272Z,56.00
2017-06-08T14:30:28.306Z,56.00
2017-06-08T14:32:56.107Z,55.80
2017-06-08T14:35:23.775Z,55.80
2017-06-08T14:37:51.919Z,55.60
2017-06-08T14:40:19.805Z,55.40
2017-06-08T14:42:47.568Z,55.30
2017-06-08T14:45:15.825Z,55.20
2017-06-08T14:47:43.715Z,55.00
2017-06-08T14:50:11.468Z,54.90
2017-06-08T14:52:39.630Z,54.70
2017-06-08T14:55:07.515Z,54.80
2017-06-08T14:57:35.512Z,54.50
2017-06-08T15:00:04.467Z,54.40
2017-06-08T15:02:32.338Z,54.20
2017-06-08T15:05:00.213Z,54.20
2017-06-08T15:07:28.365Z,54.10
2017-06-08T15:09:56.141Z,54.00
2017-06-08T15:12:24.012Z,54.00
2017-06-08T15:14:52.219Z,54.00
2017-06-08T15:17:20.878Z,53.70
2017-06-08T15:19:49.560Z,53.70
2017-06-08T15:22:18.182Z,53.60
2017-06-08T15:24:45.891Z,53.50
2017-06-08T15:27:13.756Z,53.70
2017-06-08T15:29:41.900Z,53.50
2017-06-08T15:32:09.636Z,53.40
2017-06-08T15:34:38.292Z,53.20
2017-06-08T15:37:06.460Z,53.10
2017-06-08T15:39:34.334Z,54.20
2017-06-08T15:42:02.196Z,54.50
2017-06-08T15:44:30.256Z,54.00
2017-06-08T15:46:57.989Z,53.90
2017-06-08T15:49:25.801Z,53.90
2017-06-08T15:51:54.173Z,53.60
2017-06-08T15:54:22.133Z,53.50
2017-06-08T15:56:50.101Z,53.40
2017-06-08T15:59:18.172Z,53.30
2017-06-08T16:01:45.879Z,53.30
2017-06-08T16:04:13.822Z,53.20
2017-06-08T16:06:42.071Z,53.20
2017-06-08T16:09:09.807Z,53.20
2017-06-08T16:11:37.502Z,53.20
2017-06-08T16:14:05.518Z,53.10
2017-06-08T16:16:34.173Z,53.10
2017-06-08T16:19:02.035Z,53.00
2017-06-08T16:21:30.094Z,53.20
2017-06-08T16:23:57.878Z,53.20
2017-06-08T16:26:25.745Z,53.20
2017-06-08T16:28:53.810Z,53.10
2017-06-08T16:31:21.493Z,53.00
2017-06-08T16:33:49.265Z,53.00
2017-06-08T16:36:18.115Z,53.10
2017-06-08T16:38:45.886Z,53.00
2017-06-08T16:41:13.641Z,53.00
2017-06-08T16:43:41.654Z,53.20
2017-06-08T16:46:10.145Z,53.40
2017-06-08T16:48:38.584Z,53.40
2017-06-08T16:51:06.600Z,53.30
2017-06-08T16:53:34.307Z,53.10
2017-06-08T16:56:02.074Z,53.10
2017-06-08T16:58:30.275Z,53.10
2017-06-08T17:00:58.119Z,53.10
2017-06-08T17:03:25.901Z,53.10
2017-06-08T17:05:54.048Z,53.00
2017-06-08T17:08:21.812Z,53.00
2017-06-08T17:10:49.692Z,53.00
2017-06-08T17:13:17.756Z,53.00
2017-06-08T17:15:45.436Z,52.90
2017-06-08T17:18:13.153Z,52.90
2017-06-08T17:20:41.219Z,52.90
2017-06-08T17:23:08.901Z,52.80
2017-06-08T17:25:36.644Z,52.80
2017-06-08T17:28:04.874Z,53.00
2017-06-08T17:30:32.716Z,53.00
2017-06-08T17:33:00.596Z,53.00
2017-06-08T17:35:28.877Z,52.90
2017-06-08T17:37:56.744Z,53.00
2017-06-08T17:40:24.606Z,52.90
2017-06-08T17:42:52.888Z,53.00
2017-06-08T17:45:20.744Z,52.90
2017-06-08T17:47:48.622Z,52.90
2017-06-08T17:50:16.996Z,53.00
2017-06-08T17:52:44.865Z,53.10
2017-06-08T17:55:12.729Z,53.10
2017-06-08T17:57:40.877Z,53.00
2017-06-08T18:00:08.590Z,53.20
2017-06-08T18:02:37.541Z,53.20
2017-06-08T18:05:05.501Z,53.10
2017-06-08T18:07:33.144Z,53.60
2017-06-08T18:10:00.773Z,53.20
2017-06-08T18:12:29.544Z,53.20
2017-06-08T18:14:57.201Z,53.10
2017-06-08T18:17:24.855Z,53.20
2017-06-08T18:19:52.916Z,53.40
2017-06-08T18:22:20.554Z,53.30
2017-06-08T18:24:48.255Z,53.20
2017-06-08T18:27:16.190Z,53.40
2017-06-08T18:29:43.810Z,53.20
2017-06-08T18:32:12.267Z,53.40
2017-06-08T18:37:19.062Z,53.40
2017-06-08T18:39:46.805Z,53.50
2017-06-08T18:42:14.452Z,53.40
2017-06-08T18:44:42.537Z,53.60
2017-06-08T18:47:10.167Z,53.60
2017-06-08T18:49:37.878Z,53.70
2017-06-08T18:52:05.818Z,53.50
2017-06-08T18:54:33.438Z,53.70
2017-06-08T18:57:01.975Z,53.80
2017-06-08T18:59:29.936Z,53.70
2017-06-08T19:01:57.840Z,53.60
2017-06-08T19:04:25.689Z,53.90
2017-06-08T19:06:53.865Z,53.60
2017-06-08T19:09:21.729Z,53.60
2017-06-08T19:11:49.602Z,53.60
2017-06-08T19:14:17.999Z,54.00
2017-06-08T19:16:46.673Z,54.00
2017-06-08T19:19:14.526Z,54.00
2017-06-08T19:21:42.705Z,54.00
2017-06-08T19:24:10.485Z,54.10
2017-06-08T19:26:38.440Z,54.00
2017-06-08T19:29:06.821Z,54.10
2017-06-08T19:31:34.690Z,54.50
2017-06-08T19:34:02.552Z,54.30
2017-06-08T19:36:30.722Z,54.10
2017-06-08T19:38:58.798Z,54.10
2017-06-08T19:41:26.663Z,54.40
2017-06-08T19:43:54.932Z,54.40
2017-06-08T19:46:22.807Z,54.50
2017-06-08T19:48:50.670Z,54.50
2017-06-08T19:51:18.946Z,54.50
2017-06-08T19:53:46.808Z,54.30
2017-06-08T19:56:14.680Z,54.10
2017-06-08T19:58:43.159Z,54.30
2017-06-08T20:01:11.032Z,54.20
2017-06-08T20:03:38.895Z,54.40
2017-06-08T20:06:07.167Z,54.60
2017-06-08T20:08:35.032Z,54.50
2017-06-08T20:11:02.905Z,54.70
2017-06-08T20:13:31.181Z,54.50
2017-06-08T20:15:59.867Z,54.30
2017-06-08T20:18:27.733Z,54.30
2017-06-08T20:20:56.000Z,54.60
2017-06-08T20:23:23.857Z,54.60
2017-06-08T20:25:51.745Z,54.80
2017-06-08T20:28:20.012Z,54.40
2017-06-08T20:30:47.879Z,54.60
2017-06-08T20:33:15.748Z,54.80
2017-06-08T20:35:43.928Z,54.80
2017-06-08T20:38:11.703Z,54.60
2017-06-08T20:40:40.378Z,54.60
2017-06-08T20:43:08.458Z,54.50
2017-06-08T20:45:36.311Z,54.70
2017-06-08T20:48:04.172Z,54.70
2017-06-08T20:50:32.454Z,54.40
2017-06-08T20:53:00.422Z,54.80
2017-06-08T20:55:28.293Z,54.50
2017-06-08T20:57:56.475Z,54.60
2017-06-08T21:00:24.330Z,54.80
2017-06-08T21:02:52.198Z,54.70
2017-06-08T21:05:20.574Z,54.90
2017-06-08T21:07:48.438Z,55.20
2017-06-08T21:10:16.308Z,54.90
2017-06-08T21:12:44.488Z,55.10
2017-06-08T21:15:12.342Z,54.80
2017-06-08T21:17:40.128Z,55.20
2017-06-08T21:20:08.394Z,54.80
2017-06-08T21:22:36.260Z,54.80
2017-06-08T21:25:04.120Z,54.80
2017-06-08T21:27:33.110Z,55.00
2017-06-08T21:30:00.983Z,55.00
2017-06-08T21:32:28.842Z,55.30
2017-06-08T21:34:59.409Z,55.50
2017-06-08T21:37:27.443Z,55.00
2017-06-08T21:39:55.291Z,55.00
2017-06-08T21:42:23.484Z,55.00
2017-06-08T21:44:51.354Z,55.40
2017-06-08T21:47:19.228Z,55.20
2017-06-08T21:49:47.499Z,55.50
2017-06-08T21:52:15.361Z,55.30
2017-06-08T21:54:43.209Z,55.30
2017-06-08T21:57:11.309Z,55.40
2017-06-08T21:59:39.169Z,55.30
2017-06-08T22:02:07.034Z,55.30
2017-06-08T22:04:35.307Z,55.40
2017-06-08T22:07:03.486Z,55.20
2017-06-08T22:09:31.356Z,55.20
2017-06-08T22:11:59.630Z,55.40
2017-06-08T22:14:27.494Z,55.20
2017-06-08T22:16:55.359Z,55.20
2017-06-08T22:19:23.642Z,55.40
2017-06-08T22:21:51.506Z,55.20
2017-06-08T22:24:19.130Z,55.20
2017-06-08T22:26:47.101Z,55.30
2017-06-08T22:29:14.726Z,55.20
2017-06-08T22:31:43.155Z,55.50
2017-06-08T22:34:11.096Z,55.40
2017-06-08T22:36:38.802Z,55.10
2017-06-08T22:39:06.552Z,55.30
2017-06-08T22:41:34.534Z,55.30
2017-06-08T22:44:02.187Z,55.30
2017-06-08T22:46:29.870Z,55.30
2017-06-08T22:48:57.917Z,55.50
2017-06-08T22:51:25.680Z,55.50
2017-06-08T22:53:53.358Z,55.40
2017-06-08T22:56:21.515Z,55.20
2017-06-08T22:58:49.134Z,55.20
2017-06-08T23:01:16.861Z,55.40
2017-06-08T23:03:44.791Z,55.30
2017-06-08T23:06:12.496Z,55.40
2017-06-08T23:08:40.237Z,55.40
2017-06-08T23:11:08.158Z,55.50
2017-06-08T23:13:35.967Z,55.70
2017-06-08T23:16:03.631Z,55.30
2017-06-08T23:18:31.716Z,55.40
2017-06-08T23:20:59.353Z,55.80
2017-06-08T23:23:27.039Z,55.50
2017-06-08T23:25:55.502Z,55.60
2017-06-08T23:28:23.372Z,55.70
2017-06-08T23:30:51.050Z,55.70
2017-06-08T23:33:19.039Z,55.70
2017-06-08T23:35:47.498Z,55.50
2017-06-08T23:38:15.554Z,55.50
2017-06-08T23:40:43.530Z,55.40
2017-06-08T23:43:11.195Z,55.70
2017-06-08T23:45:38.863Z,55.70
2017-06-08T23:48:06.817Z,55.80
2017-06-08T23:50:34.579Z,55.50
2017-06-08T23:53:02.207Z,55.30
2017-06-08T23:55:30.146Z,55.60
2017-06-08T23:57:58.587Z,55.50
